Wetterdaten: Woche 22.12.08 - 28.12.08 (KW52)
Datum Zeit Temperatur Luftfeuchte Luftdruck Niederschlag Wind Richtung Sonnenschein Solar Taupunkt Windchill Windben
22.12.2008 00:00 5.8 C 91 % 1036.1 hPa 0.0 l/m 1.4 km/h (1 Bft) SO 0.00 h 0 W/m 4.5 C 5.8 C 2.6 km/h (1 Bft)
22.12.2008 01:00 6.1 C 92 % 1036.0 hPa 0.0 l/m 3.3 km/h (1 Bft) W 0.00 h 0 W/m 4.8 C 5.7 C 5.7 km/h (1 Bft)
22.12.2008 02:00 6.6 C 89 % 1036.0 hPa 0.0 l/m 4.0 km/h (1 Bft) W-SW 0.00 h 0 W/m 4.8 C 6.2 C 6.5 km/h (2 Bft)
22.12.2008 03:00 6.1 C 88 % 1036.1 hPa 0.0 l/m 1.6 km/h (1 Bft) SW 0.00 h 0 W/m 4.3 C 6.1 C 3.8 km/h (1 Bft)
22.12.2008 04:00 5.6 C 89 % 1036.1 hPa 0.0 l/m 1.7 km/h (1 Bft) S-SW 0.00 h 0 W/m 4.0 C 5.6 C 3.9 km/h (1 Bft)
22.12.2008 05:00 5.4 C 90 % 1036.1 hPa 0.0 l/m 2.3 km/h (1 Bft) S 0.00 h 0 W/m 3.9 C 5.4 C 4.8 km/h (1 Bft)
22.12.2008 06:00 5.4 C 90 % 1036.4 hPa 0.0 l/m 0.9 km/h (0 Bft) S-SW 0.00 h 0 W/m 3.9 C 5.3 C 2.4 km/h (1 Bft)
22.12.2008 07:00 5.3 C 90 % 1036.5 hPa 0.0 l/m 0.5 km/h (0 Bft) S-SW 0.00 h 0 W/m 3.7 C 5.3 C 1.5 km/h (1 Bft)
22.12.2008 08:00 5.3 C 87 % 1036.4 hPa 0.0 l/m 1.0 km/h (0 Bft) S 0.00 h 23 W/m 3.4 C 5.3 C 2.9 km/h (1 Bft)
22.12.2008 09:00 5.9 C 85 % 1036.3 hPa 0.0 l/m 0.9 km/h (0 Bft) S 0.00 h 55 W/m 3.5 C 5.9 C 3.1 km/h (1 Bft)
22.12.2008 10:00 6.9 C 80 % 1036.1 hPa 0.0 l/m 0.6 km/h (0 Bft) SW 0.12 h 101 W/m 3.6 C 6.9 C 1.8 km/h (1 Bft)
22.12.2008 11:00 7.5 C 75 % 1035.7 hPa 0.0 l/m 3.9 km/h (1 Bft) W 0.12 h 128 W/m 3.4 C 7.1 C 6.4 km/h (2 Bft)
22.12.2008 12:00 7.8 C 73 % 1035.0 hPa 0.0 l/m 6.5 km/h (2 Bft) W 0.10 h 129 W/m 3.3 C 6.8 C 9.8 km/h (2 Bft)
22.12.2008 13:00 7.9 C 73 % 1034.5 hPa 0.0 l/m 7.0 km/h (2 Bft) W 0.33 h 153 W/m 3.4 C 6.9 C 10.7 km/h (2 Bft)
22.12.2008 14:00 7.6 C 75 % 1034.1 hPa 0.0 l/m 6.6 km/h (2 Bft) W 0.07 h 71 W/m 3.5 C 6.6 C 9.9 km/h (2 Bft)
22.12.2008 15:00 8.0 C 75 % 1034.4 hPa 0.0 l/m 4.1 km/h (1 Bft) W 0.15 h 47 W/m 3.8 C 7.7 C 6.9 km/h (2 Bft)
22.12.2008 16:00 7.4 C 77 % 1034.5 hPa 0.0 l/m 2.8 km/h (1 Bft) W 0.00 h 8 W/m 3.6 C 7.2 C 5.0 km/h (1 Bft)
22.12.2008 17:00 7.1 C 78 % 1034.5 hPa 0.0 l/m 0.2 km/h (0 Bft) NW 0.00 h 0 W/m 3.6 C 7.1 C 0.9 km/h (0 Bft)
22.12.2008 18:00 6.9 C 80 % 1035.1 hPa 0.0 l/m 0.5 km/h (0 Bft) NW 0.00 h 0 W/m 3.6 C 6.9 C 1.4 km/h (1 Bft)
22.12.2008 19:00 6.7 C 81 % 1035.4 hPa 0.0 l/m 0.5 km/h (0 Bft) W-NW 0.00 h 0 W/m 3.8 C 6.7 C 1.2 km/h (1 Bft)
22.12.2008 20:00 6.4 C 83 % 1035.5 hPa 0.0 l/m 0.2 km/h (0 Bft) W-NW 0.00 h 0 W/m 3.8 C 6.4 C 0.7 km/h (0 Bft)
22.12.2008 21:00 6.2 C 86 % 1035.5 hPa 0.0 l/m 0.2 km/h (0 Bft) W-NW 0.00 h 0 W/m 3.9 C 6.2 C 0.6 km/h (0 Bft)
22.12.2008 22:00 5.7 C 89 % 1035.1 hPa 0.0 l/m 0.2 km/h (0 Bft) W-NW 0.00 h 0 W/m 3.9 C 5.7 C 1.0 km/h (0 Bft)
22.12.2008 23:00 5.6 C 90 % 1034.9 hPa 0.0 l/m 0.7 km/h (0 Bft) O-SO 0.00 h 0 W/m 4.0 C 5.6 C 1.6 km/h (1 Bft)
23.12.2008 00:00 5.2 C 91 % 1034.5 hPa 0.0 l/m 2.2 km/h (1 Bft) O-SO 0.00 h 0 W/m 3.8 C 5.0 C 3.5 km/h (1 Bft)
23.12.2008 01:00 4.3 C 92 % 1034.3 hPa 0.0 l/m 1.8 km/h (1 Bft) O-SO 0.00 h 0 W/m 3.1 C 4.2 C 3.2 km/h (1 Bft)
23.12.2008 02:00 3.4 C 93 % 1034.4 hPa 0.0 l/m 0.9 km/h (0 Bft) O-SO 0.00 h 0 W/m 2.4 C 3.4 C 1.8 km/h (1 Bft)
23.12.2008 03:00 2.8 C 95 % 1034.4 hPa 0.0 l/m 0.5 km/h (0 Bft) O-SO 0.00 h 0 W/m 2.1 C 2.8 C 1.2 km/h (1 Bft)
23.12.2008 04:00 2.9 C 96 % 1034.1 hPa 0.0 l/m 0.5 km/h (0 Bft) O-SO 0.00 h 0 W/m 2.3 C 2.9 C 1.2 km/h (1 Bft)
23.12.2008 05:00 2.8 C 97 % 1033.7 hPa 0.0 l/m 0.4 km/h (0 Bft) O-SO 0.00 h 0 W/m 2.4 C 2.8 C 0.8 km/h (0 Bft)
23.12.2008 06:00 3.0 C 97 % 1033.9 hPa 0.0 l/m 0.1 km/h (0 Bft) O-SO 0.00 h 0 W/m 2.5 C 3.0 C 0.5 km/h (0 Bft)
23.12.2008 07:00 2.9 C 97 % 1034.3 hPa 0.0 l/m 1.7 km/h (1 Bft) O-SO 0.00 h 0 W/m 2.5 C 2.7 C 3.2 km/h (1 Bft)
23.12.2008 08:00 3.2 C 98 % 1034.7 hPa 0.0 l/m 0.9 km/h (0 Bft) O-SO 0.00 h 11 W/m 2.9 C 3.2 C 2.5 km/h (1 Bft)
23.12.2008 09:00 3.6 C 98 % 1035.3 hPa 0.0 l/m 0.2 km/h (0 Bft) O 0.00 h 34 W/m 3.3 C 3.6 C 1.0 km/h (0 Bft)
23.12.2008 10:00 3.8 C 97 % 1035.8 hPa 0.0 l/m 2.5 km/h (1 Bft) W-NW 0.00 h 99 W/m 3.4 C 3.6 C 4.3 km/h (1 Bft)
23.12.2008 11:00 4.6 C 93 % 1035.5 hPa 0.0 l/m 1.1 km/h (0 Bft) W-NW 0.55 h 194 W/m 3.6 C 4.6 C 2.8 km/h (1 Bft)
23.12.2008 12:00 5.9 C 87 % 1034.8 hPa 0.0 l/m 0.3 km/h (0 Bft) W-NW 0.27 h 151 W/m 3.9 C 5.9 C 1.0 km/h (0 Bft)
23.12.2008 13:00 7.2 C 81 % 1034.5 hPa 0.0 l/m 1.9 km/h (1 Bft) NO 0.28 h 118 W/m 4.1 C 7.1 C 5.1 km/h (1 Bft)
23.12.2008 14:00 7.1 C 79 % 1034.6 hPa 0.0 l/m 2.0 km/h (1 Bft) N-NO 0.00 h 57 W/m 3.8 C 7.0 C 4.3 km/h (1 Bft)
23.12.2008 15:00 6.8 C 79 % 1034.8 hPa 0.0 l/m 3.6 km/h (1 Bft) N 0.00 h 32 W/m 3.4 C 6.5 C 6.6 km/h (2 Bft)
23.12.2008 16:00 6.3 C 79 % 1035.0 hPa 0.0 l/m 1.9 km/h (1 Bft) N-NO 0.00 h 11 W/m 2.9 C 6.2 C 4.6 km/h (1 Bft)
23.12.2008 17:00 5.2 C 81 % 1035.3 hPa 0.0 l/m 1.4 km/h (1 Bft) O-NO 0.00 h 0 W/m 2.2 C 5.2 C 3.3 km/h (1 Bft)
23.12.2008 18:00 3.8 C 86 % 1035.5 hPa 0.0 l/m 0.3 km/h (0 Bft) O-NO 0.00 h 0 W/m 1.7 C 3.8 C 1.1 km/h (1 Bft)
23.12.2008 19:00 2.7 C 89 % 1035.6 hPa 0.0 l/m 0.7 km/h (0 Bft) O 0.00 h 0 W/m 1.1 C 2.7 C 1.5 km/h (1 Bft)
23.12.2008 20:00 1.9 C 92 % 1035.6 hPa 0.0 l/m 0.5 km/h (0 Bft) O 0.00 h 0 W/m 0.7 C 1.9 C 1.6 km/h (1 Bft)
23.12.2008 21:00 1.3 C 93 % 1035.6 hPa 0.0 l/m 0.2 km/h (0 Bft) N-NO 0.00 h 0 W/m 0.4 C 1.3 C 1.2 km/h (1 Bft)
23.12.2008 22:00 0.8 C 94 % 1035.6 hPa 0.0 l/m 0.4 km/h (0 Bft) O-NO 0.00 h 0 W/m -0.0 C 0.8 C 0.9 km/h (0 Bft)
23.12.2008 23:00 0.2 C 95 % 1035.6 hPa 0.0 l/m 0.8 km/h (0 Bft) O-NO 0.00 h 0 W/m -0.5 C 0.2 C 1.8 km/h (1 Bft)
24.12.2008 00:00 0.0 C 96 % 1035.4 hPa 0.0 l/m 0.1 km/h (0 Bft) O-NO 0.00 h 0 W/m -0.5 C 0.0 C 0.5 km/h (0 Bft)
24.12.2008 01:00 -0.6 C 97 % 1034.9 hPa 0.0 l/m 0.3 km/h (0 Bft) O-NO 0.00 h 0 W/m -1.1 C -0.6 C 0.8 km/h (0 Bft)
24.12.2008 02:00 -1.0 C 97 % 1035.0 hPa 0.0 l/m 1.0 km/h (0 Bft) O-NO 0.00 h 0 W/m -1.4 C -1.0 C 1.8 km/h (1 Bft)
24.12.2008 03:00 -1.2 C 97 % 1034.8 hPa 0.0 l/m 0.0 km/h (0 Bft) O-NO 0.00 h 0 W/m -1.6 C -1.2 C 0.1 km/h (0 Bft)
24.12.2008 04:00 -1.3 C 97 % 1034.5 hPa 0.0 l/m 1.0 km/h (0 Bft) O-SO 0.00 h 0 W/m -1.7 C -1.3 C 1.7 km/h (1 Bft)
24.12.2008 05:00 -1.6 C 98 % 1034.5 hPa 0.0 l/m 0.0 km/h (0 Bft) N 0.00 h 0 W/m -2.0 C -1.6 C 0.2 km/h (0 Bft)
24.12.2008 06:00 -1.8 C 98 % 1034.1 hPa 0.0 l/m 0.2 km/h (0 Bft) O-SO 0.00 h 0 W/m -2.1 C -1.8 C 0.8 km/h (0 Bft)
24.12.2008 07:00 -2.2 C 98 % 1033.9 hPa 0.0 l/m 0.2 km/h (0 Bft) O-SO 0.00 h 0 W/m -2.4 C -2.2 C 0.7 km/h (0 Bft)
24.12.2008 08:00 -2.3 C 98 % 1034.0 hPa 0.0 l/m 0.1 km/h (0 Bft) O-SO 0.00 h 12 W/m -2.5 C -2.3 C 0.1 km/h (0 Bft)
24.12.2008 09:00 -1.4 C 99 % 1034.1 hPa 0.0 l/m 0.7 km/h (0 Bft) N-NO 0.00 h 56 W/m -1.5 C -1.4 C 1.8 km/h (1 Bft)
24.12.2008 10:00 -0.4 C 100 % 1034.3 hPa 0.2 l/m 0.4 km/h (0 Bft) N-NO 0.27 h 117 W/m -0.4 C -0.4 C 1.4 km/h (1 Bft)
24.12.2008 11:00 0.3 C 100 % 1034.2 hPa 0.0 l/m 0.7 km/h (0 Bft) N 0.00 h 81 W/m 0.3 C 0.3 C 2.1 km/h (1 Bft)
24.12.2008 12:00 1.2 C 100 % 1033.5 hPa 0.0 l/m 1.2 km/h (1 Bft) N-NW 0.00 h 84 W/m 1.2 C 1.2 C 2.7 km/h (1 Bft)
24.12.2008 13:00 1.9 C 100 % 1032.6 hPa 0.0 l/m 1.0 km/h (0 Bft) N-NO 0.00 h 81 W/m 1.9 C 1.8 C 2.5 km/h (1 Bft)
24.12.2008 14:00 2.1 C 100 % 1031.3 hPa 0.0 l/m 1.3 km/h (1 Bft) N 0.00 h 57 W/m 2.1 C 2.1 C 2.9 km/h (1 Bft)
24.12.2008 15:00 2.2 C 100 % 1030.2 hPa 0.0 l/m 0.9 km/h (0 Bft) N-NW 0.00 h 23 W/m 2.2 C 2.2 C 2.6 km/h (1 Bft)
24.12.2008 16:00 1.8 C 100 % 1029.4 hPa 0.0 l/m 1.7 km/h (1 Bft) NW 0.00 h 7 W/m 1.8 C 1.8 C 3.3 km/h (1 Bft)
24.12.2008 17:00 1.8 C 100 % 1029.1 hPa 0.0 l/m 1.2 km/h (1 Bft) N-NW 0.00 h 0 W/m 1.8 C 1.7 C 2.4 km/h (1 Bft)
24.12.2008 18:00 2.0 C 100 % 1030.0 hPa 0.0 l/m 0.1 km/h (0 Bft) N-NW 0.00 h 0 W/m 2.0 C 2.0 C 0.9 km/h (0 Bft)
24.12.2008 19:00 2.0 C 100 % 1031.2 hPa 0.0 l/m 1.4 km/h (1 Bft) O-SO 0.00 h 0 W/m 2.0 C 1.9 C 2.6 km/h (1 Bft)
24.12.2008 20:00 2.1 C 100 % 1030.8 hPa 0.0 l/m 1.9 km/h (1 Bft) N-NW 0.00 h 0 W/m 2.1 C 1.9 C 3.8 km/h (1 Bft)
24.12.2008 21:00 2.1 C 100 % 1030.3 hPa 0.0 l/m 1.6 km/h (1 Bft) N-NO 0.00 h 0 W/m 2.1 C 2.0 C 3.4 km/h (1 Bft)
24.12.2008 22:00 2.1 C 100 % 1029.7 hPa 0.0 l/m 0.7 km/h (0 Bft) NW 0.00 h 0 W/m 2.1 C 2.1 C 1.9 km/h (1 Bft)
24.12.2008 23:00 2.1 C 100 % 1028.5 hPa 0.0 l/m 1.2 km/h (1 Bft) NW 0.00 h 0 W/m 2.1 C 2.1 C 2.8 km/h (1 Bft)
25.12.2008 00:00 2.2 C 100 % 1027.5 hPa 0.0 l/m 0.6 km/h (0 Bft) N-NW 0.00 h 0 W/m 2.2 C 2.2 C 1.4 km/h (1 Bft)
25.12.2008 01:00 2.1 C 100 % 1026.8 hPa 0.0 l/m 1.2 km/h (1 Bft) NW 0.00 h 0 W/m 2.1 C 2.1 C 2.8 km/h (1 Bft)
25.12.2008 02:00 2.1 C 100 % 1027.4 hPa 0.0 l/m 1.3 km/h (1 Bft) N-NW 0.00 h 0 W/m 2.1 C 2.0 C 3.1 km/h (1 Bft)
25.12.2008 03:00 2.0 C 100 % 1027.5 hPa 0.0 l/m 1.5 km/h (1 Bft) W-SW 0.00 h 0 W/m 2.0 C 1.9 C 3.0 km/h (1 Bft)
25.12.2008 04:00 1.8 C 100 % 1027.1 hPa 0.0 l/m 0.1 km/h (0 Bft) O-NO 0.00 h 0 W/m 1.8 C 1.8 C 0.7 km/h (0 Bft)
25.12.2008 05:00 1.8 C 100 % 1027.0 hPa 1.0 l/m 1.5 km/h (1 Bft) N 0.00 h 0 W/m 1.8 C 1.7 C 3.3 km/h (1 Bft)
25.12.2008 06:00 1.5 C 99 % 1026.9 hPa 0.4 l/m 0.2 km/h (0 Bft) O 0.00 h 0 W/m 1.3 C 1.5 C 0.8 km/h (0 Bft)
25.12.2008 07:00 1.1 C 99 % 1026.4 hPa 0.0 l/m 0.5 km/h (0 Bft) O-SO 0.00 h 0 W/m 0.9 C 1.0 C 1.4 km/h (1 Bft)
25.12.2008 08:00 1.2 C 100 % 1026.5 hPa 0.0 l/m 1.2 km/h (1 Bft) NO 0.00 h 20 W/m 1.2 C 1.1 C 3.5 km/h (1 Bft)
25.12.2008 09:00 2.3 C 99 % 1026.6 hPa 0.0 l/m 3.4 km/h (1 Bft) NO 0.00 h 40 W/m 2.2 C 1.7 C 7.6 km/h (2 Bft)
25.12.2008 10:00 3.3 C 90 % 1026.6 hPa 0.0 l/m 4.7 km/h (1 Bft) NO 0.00 h 86 W/m 1.8 C 2.4 C 10.6 km/h (2 Bft)
25.12.2008 11:00 3.9 C 81 % 1026.2 hPa 0.0 l/m 5.4 km/h (1 Bft) NO 0.00 h 94 W/m 1.0 C 3.0 C 11.5 km/h (2 Bft)
25.12.2008 12:00 4.3 C 78 % 1025.3 hPa 0.0 l/m 9.0 km/h (2 Bft) N-NO 0.07 h 122 W/m 0.8 C 2.3 C 19.1 km/h (3 Bft)
25.12.2008 13:00 4.5 C 76 % 1025.4 hPa 0.0 l/m 6.3 km/h (2 Bft) N-NO 0.00 h 58 W/m 0.6 C 3.2 C 13.3 km/h (3 Bft)
25.12.2008 14:00 4.4 C 76 % 1025.6 hPa 0.0 l/m 4.8 km/h (1 Bft) O 0.00 h 49 W/m 0.5 C 3.6 C 10.4 km/h (2 Bft)
25.12.2008 15:00 4.3 C 75 % 1025.9 hPa 0.0 l/m 7.4 km/h (2 Bft) N-NO 0.00 h 27 W/m 0.2 C 2.7 C 15.9 km/h (3 Bft)
25.12.2008 16:00 4.1 C 74 % 1026.4 hPa 0.0 l/m 5.3 km/h (1 Bft) NO 0.00 h 9 W/m -0.0 C 3.0 C 11.2 km/h (2 Bft)
25.12.2008 17:00 3.8 C 74 % 1026.8 hPa 0.0 l/m 5.4 km/h (1 Bft) NO 0.00 h 0 W/m -0.4 C 2.7 C 11.1 km/h (2 Bft)
25.12.2008 18:00 3.8 C 73 % 1027.5 hPa 0.0 l/m 5.4 km/h (1 Bft) N-NO 0.00 h 0 W/m -0.5 C 2.8 C 11.3 km/h (2 Bft)
25.12.2008 19:00 3.7 C 73 % 1027.5 hPa 0.0 l/m 4.9 km/h (1 Bft) NO 0.00 h 0 W/m -0.6 C 2.8 C 10.1 km/h (2 Bft)
25.12.2008 20:00 3.5 C 75 % 1026.9 hPa 0.0 l/m 4.5 km/h (1 Bft) NO 0.00 h 0 W/m -0.5 C 2.7 C 9.1 km/h (2 Bft)
25.12.2008 21:00 3.4 C 73 % 1026.5 hPa 0.0 l/m 7.4 km/h (2 Bft) N-NO 0.00 h 0 W/m -1.0 C 1.6 C 15.0 km/h (3 Bft)
25.12.2008 22:00 2.4 C 71 % 1026.8 hPa 0.0 l/m 8.5 km/h (2 Bft) O-SO 0.00 h 0 W/m -2.3 C 0.2 C 18.3 km/h (3 Bft)
25.12.2008 23:00 1.8 C 72 % 1026.8 hPa 0.0 l/m 8.7 km/h (2 Bft) O 0.00 h 0 W/m -2.8 C -0.6 C 18.1 km/h (3 Bft)
26.12.2008 00:00 0.9 C 62 % 1026.5 hPa 0.0 l/m 10.8 km/h (2 Bft) O-SO 0.00 h 0 W/m -5.6 C -2.2 C 21.6 km/h (4 Bft)
26.12.2008 01:00 0.1 C 57 % 1026.2 hPa 0.0 l/m 8.4 km/h (2 Bft) O 0.00 h 0 W/m -7.5 C -2.5 C 17.9 km/h (3 Bft)
26.12.2008 02:00 -0.3 C 60 % 1025.6 hPa 0.0 l/m 9.9 km/h (2 Bft) O-SO 0.00 h 0 W/m -7.2 C -3.3 C 19.1 km/h (3 Bft)
26.12.2008 03:00 -0.5 C 58 % 1025.6 hPa 0.0 l/m 12.0 km/h (2 Bft) O 0.00 h 0 W/m -7.6 C -4.2 C 24.7 km/h (4 Bft)
26.12.2008 04:00 -0.6 C 60 % 1025.9 hPa 0.0 l/m 12.5 km/h (3 Bft) N-NO 0.00 h 0 W/m -7.4 C -4.5 C 26.8 km/h (4 Bft)
26.12.2008 05:00 -1.1 C 62 % 1026.4 hPa 0.0 l/m 11.0 km/h (2 Bft) NO 0.00 h 0 W/m -7.3 C -4.7 C 22.2 km/h (4 Bft)
26.12.2008 06:00 -1.2 C 63 % 1027.5 hPa 0.0 l/m 7.1 km/h (2 Bft) O 0.00 h 0 W/m -7.3 C -3.4 C 14.1 km/h (3 Bft)
26.12.2008 07:00 -1.4 C 65 % 1028.1 hPa 0.0 l/m 6.7 km/h (2 Bft) N-NO 0.00 h 0 W/m -7.1 C -3.4 C 14.1 km/h (3 Bft)
26.12.2008 08:00 -1.5 C 66 % 1029.1 hPa 0.0 l/m 6.8 km/h (2 Bft) NO 0.07 h 14 W/m -7.0 C -3.7 C 14.6 km/h (3 Bft)
26.12.2008 09:00 -1.2 C 65 % 1029.7 hPa 0.0 l/m 5.3 km/h (1 Bft) NO 0.32 h 62 W/m -7.0 C -2.7 C 12.0 km/h (2 Bft)
26.12.2008 10:00 -0.5 C 62 % 1030.0 hPa 0.0 l/m 5.5 km/h (1 Bft) NO 0.12 h 66 W/m -6.8 C -2.1 C 12.3 km/h (3 Bft)
26.12.2008 11:00 0.3 C 60 % 1030.1 hPa 0.0 l/m 5.9 km/h (2 Bft) O 1.00 h 235 W/m -6.6 C -1.2 C 12.4 km/h (3 Bft)
26.12.2008 12:00 1.0 C 58 % 1030.0 hPa 0.0 l/m 8.0 km/h (2 Bft) O-SO 1.00 h 256 W/m -6.2 C -1.3 C 16.0 km/h (3 Bft)
26.12.2008 13:00 1.6 C 56 % 1029.6 hPa 0.0 l/m 9.1 km/h (2 Bft) O-SO 1.00 h 230 W/m -6.1 C -1.0 C 18.8 km/h (3 Bft)
26.12.2008 14:00 1.8 C 55 % 1029.2 hPa 0.0 l/m 9.8 km/h (2 Bft) O-SO 0.82 h 160 W/m -6.2 C -1.0 C 20.2 km/h (4 Bft)
26.12.2008 15:00 2.0 C 54 % 1028.4 hPa 0.0 l/m 7.5 km/h (2 Bft) O 0.93 h 85 W/m -6.4 C -0.1 C 16.2 km/h (3 Bft)
26.12.2008 16:00 1.4 C 56 % 1028.9 hPa 0.0 l/m 4.9 km/h (1 Bft) O 0.05 h 18 W/m -6.5 C 0.3 C 11.4 km/h (2 Bft)
26.12.2008 17:00 0.7 C 59 % 1029.4 hPa 0.0 l/m 7.2 km/h (2 Bft) O-SO 0.00 h 0 W/m -6.4 C -1.3 C 14.8 km/h (3 Bft)
26.12.2008 18:00 0.0 C 63 % 1029.7 hPa 0.0 l/m 6.0 km/h (2 Bft) O-SO 0.00 h 0 W/m -6.1 C -1.7 C 13.0 km/h (3 Bft)
26.12.2008 19:00 -0.5 C 66 % 1029.9 hPa 0.0 l/m 5.9 km/h (2 Bft) O-SO 0.00 h 0 W/m -6.0 C -2.1 C 12.3 km/h (3 Bft)
26.12.2008 20:00 -0.9 C 69 % 1030.2 hPa 0.0 l/m 4.6 km/h (1 Bft) O 0.00 h 0 W/m -5.9 C -2.0 C 9.3 km/h (2 Bft)
26.12.2008 21:00 -1.2 C 70 % 1030.5 hPa 0.0 l/m 5.7 km/h (1 Bft) O-SO 0.00 h 0 W/m -5.9 C -3.0 C 11.2 km/h (2 Bft)
26.12.2008 22:00 -1.4 C 71 % 1030.8 hPa 0.0 l/m 6.0 km/h (2 Bft) O-SO 0.00 h 0 W/m -6.0 C -3.3 C 12.1 km/h (2 Bft)
26.12.2008 23:00 -1.8 C 72 % 1031.0 hPa 0.0 l/m 5.2 km/h (1 Bft) O 0.00 h 0 W/m -6.2 C -3.4 C 10.9 km/h (2 Bft)
27.12.2008 00:00 -2.1 C 73 % 1030.7 hPa 0.0 l/m 5.7 km/h (1 Bft) O-SO 0.00 h 0 W/m -6.2 C -3.9 C 10.6 km/h (2 Bft)
27.12.2008 01:00 -2.1 C 74 % 1030.7 hPa 0.0 l/m 4.9 km/h (1 Bft) O 0.00 h 0 W/m -6.2 C -3.5 C 10.0 km/h (2 Bft)
27.12.2008 02:00 -1.9 C 73 % 1030.4 hPa 0.0 l/m 4.2 km/h (1 Bft) O 0.00 h 0 W/m -6.1 C -2.9 C 9.3 km/h (2 Bft)
27.12.2008 03:00 -1.8 C 73 % 1030.1 hPa 0.0 l/m 6.4 km/h (2 Bft) O-SO 0.00 h 0 W/m -6.0 C -3.8 C 12.7 km/h (3 Bft)
27.12.2008 04:00 -1.7 C 73 % 1030.0 hPa 0.0 l/m 5.7 km/h (1 Bft) O-SO 0.00 h 0 W/m -5.9 C -3.6 C 12.0 km/h (2 Bft)
27.12.2008 05:00 -1.6 C 73 % 1030.1 hPa 0.0 l/m 6.7 km/h (2 Bft) O-SO 0.00 h 0 W/m -5.8 C -3.7 C 13.2 km/h (3 Bft)
27.12.2008 06:00 -1.5 C 73 % 1030.6 hPa 0.0 l/m 5.6 km/h (1 Bft) O 0.00 h 0 W/m -5.7 C -3.2 C 11.2 km/h (2 Bft)
27.12.2008 07:00 -1.4 C 73 % 1030.8 hPa 0.0 l/m 5.0 km/h (1 Bft) O 0.00 h 0 W/m -5.6 C -2.9 C 10.9 km/h (2 Bft)
27.12.2008 08:00 -1.4 C 73 % 1031.0 hPa 0.0 l/m 5.3 km/h (1 Bft) O 0.00 h 6 W/m -5.5 C -2.8 C 10.4 km/h (2 Bft)
27.12.2008 09:00 -1.3 C 74 % 1031.3 hPa 0.0 l/m 4.8 km/h (1 Bft) O 0.00 h 14 W/m -5.2 C -2.5 C 10.6 km/h (2 Bft)
27.12.2008 10:00 -1.1 C 74 % 1031.5 hPa 0.0 l/m 6.0 km/h (2 Bft) O-SO 0.00 h 23 W/m -5.1 C -2.9 C 11.2 km/h (2 Bft)
27.12.2008 11:00 -1.0 C 73 % 1031.4 hPa 0.0 l/m 5.1 km/h (1 Bft) O 0.00 h 29 W/m -5.2 C -2.5 C 10.6 km/h (2 Bft)
27.12.2008 12:00 -1.1 C 69 % 1031.0 hPa 0.0 l/m 4.7 km/h (1 Bft) O-SO 0.00 h 46 W/m -6.0 C -2.4 C 10.1 km/h (2 Bft)
27.12.2008 13:00 -0.9 C 66 % 1030.4 hPa 0.0 l/m 6.2 km/h (2 Bft) O-SO 0.00 h 48 W/m -6.4 C -2.8 C 12.9 km/h (3 Bft)
27.12.2008 14:00 -0.9 C 66 % 1029.9 hPa 0.0 l/m 5.3 km/h (1 Bft) O 0.00 h 31 W/m -6.4 C -2.4 C 11.0 km/h (2 Bft)
27.12.2008 15:00 -0.9 C 66 % 1029.8 hPa 0.0 l/m 5.6 km/h (1 Bft) O 0.00 h 15 W/m -6.4 C -2.5 C 12.2 km/h (2 Bft)
27.12.2008 16:00 -1.0 C 66 % 1029.7 hPa 0.0 l/m 4.2 km/h (1 Bft) O 0.00 h 7 W/m -6.6 C -2.1 C 9.0 km/h (2 Bft)
27.12.2008 17:00 -1.1 C 66 % 1029.5 hPa 0.0 l/m 5.3 km/h (1 Bft) O-SO 0.00 h 0 W/m -6.6 C -2.6 C 11.3 km/h (2 Bft)
27.12.2008 18:00 -1.1 C 66 % 1029.4 hPa 0.0 l/m 6.9 km/h (2 Bft) O 0.00 h 0 W/m -6.6 C -3.3 C 14.3 km/h (3 Bft)
27.12.2008 19:00 -1.2 C 68 % 1029.5 hPa 0.0 l/m 6.0 km/h (2 Bft) O 0.00 h 0 W/m -6.3 C -3.0 C 12.4 km/h (3 Bft)
27.12.2008 20:00 -1.2 C 69 % 1029.3 hPa 0.0 l/m 6.2 km/h (2 Bft) O 0.00 h 0 W/m -6.1 C -3.0 C 12.9 km/h (3 Bft)
27.12.2008 21:00 -1.3 C 69 % 1029.2 hPa 0.0 l/m 5.7 km/h (1 Bft) O 0.00 h 0 W/m -6.2 C -2.9 C 11.6 km/h (2 Bft)
27.12.2008 22:00 -1.4 C 70 % 1028.6 hPa 0.0 l/m 5.3 km/h (1 Bft) O 0.00 h 0 W/m -6.1 C -2.9 C 11.3 km/h (2 Bft)
27.12.2008 23:00 -1.4 C 69 % 1028.2 hPa 0.0 l/m 6.9 km/h (2 Bft) O 0.00 h 0 W/m -6.3 C -3.7 C 14.5 km/h (3 Bft)
28.12.2008 00:00 -1.4 C 68 % 1027.9 hPa 0.0 l/m 6.3 km/h (2 Bft) O-SO 0.00 h 0 W/m -6.6 C -3.4 C 12.7 km/h (3 Bft)
28.12.2008 01:00 -1.3 C 66 % 1027.5 hPa 0.0 l/m 6.3 km/h (2 Bft) O-SO 0.00 h 0 W/m -6.8 C -3.2 C 12.7 km/h (3 Bft)
28.12.2008 02:00 -1.2 C 66 % 1027.2 hPa 0.0 l/m 5.5 km/h (1 Bft) O 0.00 h 0 W/m -6.7 C -2.8 C 10.7 km/h (2 Bft)
28.12.2008 03:00 -1.1 C 67 % 1026.8 hPa 0.0 l/m 5.4 km/h (1 Bft) O 0.00 h 0 W/m -6.4 C -2.6 C 10.8 km/h (2 Bft)
28.12.2008 04:00 -1.1 C 67 % 1026.4 hPa 0.0 l/m 4.1 km/h (1 Bft) O-SO 0.00 h 0 W/m -6.4 C -2.1 C 9.7 km/h (2 Bft)
28.12.2008 05:00 -1.1 C 68 % 1026.2 hPa 0.0 l/m 4.3 km/h (1 Bft) NO 0.00 h 0 W/m -6.3 C -2.2 C 9.6 km/h (2 Bft)
28.12.2008 06:00 -1.3 C 69 % 1026.0 hPa 0.0 l/m 3.7 km/h (1 Bft) NO 0.00 h 0 W/m -6.2 C -1.9 C 7.9 km/h (2 Bft)
28.12.2008 07:00 -1.3 C 69 % 1026.0 hPa 0.0 l/m 2.8 km/h (1 Bft) O-NO 0.00 h 0 W/m -6.2 C -1.8 C 6.4 km/h (2 Bft)
28.12.2008 08:00 -1.4 C 69 % 1026.1 hPa 0.0 l/m 3.6 km/h (1 Bft) NO 0.00 h 7 W/m -6.4 C -2.2 C 7.7 km/h (2 Bft)
28.12.2008 09:00 -1.4 C 67 % 1026.3 hPa 0.0 l/m 5.8 km/h (2 Bft) O-SO 0.00 h 20 W/m -6.6 C -3.2 C 11.9 km/h (2 Bft)
28.12.2008 10:00 -1.2 C 67 % 1026.1 hPa 0.0 l/m 4.1 km/h (1 Bft) O 0.00 h 40 W/m -6.5 C -2.3 C 8.3 km/h (2 Bft)
28.12.2008 11:00 -1.0 C 67 % 1025.9 hPa 0.0 l/m 2.2 km/h (1 Bft) O-NO 0.00 h 52 W/m -6.4 C -1.4 C 5.3 km/h (1 Bft)
28.12.2008 12:00 -0.9 C 67 % 1025.8 hPa 0.0 l/m 4.4 km/h (1 Bft) O-SO 0.00 h 51 W/m -6.3 C -2.0 C 8.6 km/h (2 Bft)
28.12.2008 13:00 -0.9 C 67 % 1025.4 hPa 0.0 l/m 4.1 km/h (1 Bft) O-SO 0.00 h 57 W/m -6.3 C -1.8 C 8.4 km/h (2 Bft)
28.12.2008 14:00 -0.7 C 66 % 1025.4 hPa 0.0 l/m 5.9 km/h (2 Bft) O-SO 0.00 h 45 W/m -6.3 C -2.5 C 10.3 km/h (2 Bft)
28.12.2008 15:00 -0.6 C 66 % 1025.4 hPa 0.0 l/m 2.6 km/h (1 Bft) O-NO 0.00 h 36 W/m -6.2 C -1.0 C 6.0 km/h (2 Bft)
28.12.2008 16:00 -1.0 C 67 % 1025.7 hPa 0.0 l/m 2.1 km/h (1 Bft) NO 0.00 h 12 W/m -6.4 C -1.3 C 5.1 km/h (1 Bft)
28.12.2008 17:00 -1.3 C 68 % 1026.0 hPa 0.0 l/m 2.1 km/h (1 Bft) NO 0.00 h 0 W/m -6.5 C -1.5 C 5.3 km/h (1 Bft)
28.12.2008 18:00 -1.8 C 69 % 1026.5 hPa 0.0 l/m 1.6 km/h (1 Bft) O-NO 0.00 h 0 W/m -6.7 C -1.9 C 4.1 km/h (1 Bft)
28.12.2008 19:00 -2.3 C 71 % 1026.6 hPa 0.0 l/m 1.2 km/h (1 Bft) N-NO 0.00 h 0 W/m -6.8 C -2.3 C 3.2 km/h (1 Bft)
28.12.2008 20:00 -3.1 C 75 % 1026.7 hPa 0.0 l/m 0.8 km/h (0 Bft) N-NO 0.00 h 0 W/m -6.9 C -3.1 C 2.4 km/h (1 Bft)
28.12.2008 21:00 -3.7 C 78 % 1027.0 hPa 0.0 l/m 0.7 km/h (0 Bft) NO 0.00 h 0 W/m -7.0 C -3.8 C 1.6 km/h (1 Bft)
28.12.2008 22:00 -4.3 C 81 % 1027.3 hPa 0.0 l/m 2.4 km/h (1 Bft) O-NO 0.00 h 0 W/m -7.2 C -4.5 C 3.6 km/h (1 Bft)
28.12.2008 23:00 -5.0 C 83 % 1027.5 hPa 0.0 l/m 2.1 km/h (1 Bft) O 0.00 h 0 W/m -7.5 C -5.3 C 3.2 km/h (1 Bft)
Min-Datum _ 28.12.08 26.12.08 25.12.08 - 22.12.08 - - - 26.12.08 28.12.08 22.12.08
_ Min-Zeit 23:33 15:15 12:20 - 00:03 - - - 03:15 23:47 00:03
Minimum _ -5.2 C 53 % 1025.1 hPa - 0.0 km/h (0 Bft) - - - -7.9 C -8.3 C 0.0 km/h (0 Bft)
Max-Datum _ 22.12.08 24.12.08 22.12.08 25.12.08 26.12.08 - 22.12.08 23.12.08 22.12.08 22.12.08 26.12.08
_ Max-Zeit 15:29 10:28 07:15 05:02 03:23 - 10:12 13:06 01:59 15:28 03:20
Maximum _ 8.5 C 100 % 1036.7 hPa 1.0 l/m 27.8 km/h
O (4 Bft)
- 0.02 h 306 W/m 5.1 C 8.5 C 48.7 km/h
O-SO (6 Bft)
Durchschnitt _ 1.5 C 80 % 1030.7 hPa #1.6 l/m 3.5 km/h (1 Bft) O-SO #7:37 h 65 W/m -1.7 C 0.7 C 7.4 km/h (2 Bft)
© Kaiko 2008